sensor_id;sensor_type;location;lat;lon;timestamp;pressure;altitude;pressure_sealevel;temperature
77599;BMP280;66758;52.078;5.070;2023-03-03T00:01:13;102656.69;;;1.67
77599;BMP280;66758;52.078;5.070;2023-03-03T00:03:39;102667.84;;;1.70
77599;BMP280;66758;52.078;5.070;2023-03-03T00:06:08;102667.13;;;1.75
77599;BMP280;66758;52.078;5.070;2023-03-03T00:08:34;102656.59;;;1.61
77599;BMP280;66758;52.078;5.070;2023-03-03T00:11:00;102651.78;;;1.63
77599;BMP280;66758;52.078;5.070;2023-03-03T00:13:28;102654.97;;;1.60
77599;BMP280;66758;52.078;5.070;2023-03-03T00:16:11;102663.06;;;1.60
77599;BMP280;66758;52.078;5.070;2023-03-03T00:18:42;102668.00;;;1.63
77599;BMP280;66758;52.078;5.070;2023-03-03T00:21:24;102658.72;;;1.59
77599;BMP280;66758;52.078;5.070;2023-03-03T00:23:52;102660.72;;;1.64
77599;BMP280;66758;52.078;5.070;2023-03-03T00:28:51;102659.00;;;1.75
77599;BMP280;66758;52.078;5.070;2023-03-03T00:31:51;102663.66;;;1.62
77599;BMP280;66758;52.078;5.070;2023-03-03T00:36:42;102655.81;;;1.49
77599;BMP280;66758;52.078;5.070;2023-03-03T00:39:37;102667.41;;;1.61
77599;BMP280;66758;52.078;5.070;2023-03-03T00:42:14;102662.88;;;1.50
77599;BMP280;66758;52.078;5.070;2023-03-03T00:44:45;102671.84;;;1.68
77599;BMP280;66758;52.078;5.070;2023-03-03T00:47:37;102662.16;;;1.55
77599;BMP280;66758;52.078;5.070;2023-03-03T00:52:39;102670.59;;;1.58
77599;BMP280;66758;52.078;5.070;2023-03-03T00:55:06;102676.34;;;1.62
77599;BMP280;66758;52.078;5.070;2023-03-03T00:57:32;102657.13;;;1.47
77599;BMP280;66758;52.078;5.070;2023-03-03T00:59:57;102677.28;;;1.56
77599;BMP280;66758;52.078;5.070;2023-03-03T01:02:23;102661.09;;;1.56
77599;BMP280;66758;52.078;5.070;2023-03-03T01:04:51;102673.19;;;1.53
77599;BMP280;66758;52.078;5.070;2023-03-03T01:07:17;102672.81;;;1.61
77599;BMP280;66758;52.078;5.070;2023-03-03T01:09:43;102672.13;;;1.54
77599;BMP280;66758;52.078;5.070;2023-03-03T01:12:10;102667.91;;;1.58
77599;BMP280;66758;52.078;5.070;2023-03-03T01:14:38;102667.78;;;1.53
77599;BMP280;66758;52.078;5.070;2023-03-03T01:17:04;102689.03;;;1.61
77599;BMP280;66758;52.078;5.070;2023-03-03T01:19:30;102687.63;;;1.59
77599;BMP280;66758;52.078;5.070;2023-03-03T01:21:55;102674.41;;;1.46
77599;BMP280;66758;52.078;5.070;2023-03-03T01:24:21;102680.97;;;1.50
77599;BMP280;66758;52.078;5.070;2023-03-03T01:26:46;102666.44;;;1.39
77599;BMP280;66758;52.078;5.070;2023-03-03T01:29:12;102681.00;;;1.38
77599;BMP280;66758;52.078;5.070;2023-03-03T01:31:37;102673.44;;;1.23
77599;BMP280;66758;52.078;5.070;2023-03-03T01:34:03;102675.88;;;1.25
77599;BMP280;66758;52.078;5.070;2023-03-03T01:36:29;102683.88;;;1.20
77599;BMP280;66758;52.078;5.070;2023-03-03T01:38:54;102684.81;;;1.14
77599;BMP280;66758;52.078;5.070;2023-03-03T01:41:20;102688.81;;;1.11
77599;BMP280;66758;52.078;5.070;2023-03-03T01:43:49;102681.66;;;1.05
77599;BMP280;66758;52.078;5.070;2023-03-03T01:46:27;102694.81;;;1.02
77599;BMP280;66758;52.078;5.070;2023-03-03T01:49:14;102694.22;;;0.99
77599;BMP280;66758;52.078;5.070;2023-03-03T01:51:46;102682.41;;;0.89
77599;BMP280;66758;52.078;5.070;2023-03-03T01:54:41;102692.59;;;0.87
77599;BMP280;66758;52.078;5.070;2023-03-03T01:57:14;102689.78;;;0.70
77599;BMP280;66758;52.078;5.070;2023-03-03T01:59:44;102682.88;;;0.74
77599;BMP280;66758;52.078;5.070;2023-03-03T02:02:11;102692.84;;;0.74
77599;BMP280;66758;52.078;5.070;2023-03-03T02:04:38;102695.06;;;0.65
77599;BMP280;66758;52.078;5.070;2023-03-03T02:07:09;102698.22;;;0.62
77599;BMP280;66758;52.078;5.070;2023-03-03T02:10:23;102691.06;;;0.56
77599;BMP280;66758;52.078;5.070;2023-03-03T02:12:54;102688.72;;;0.48
77599;BMP280;66758;52.078;5.070;2023-03-03T02:15:39;102696.69;;;0.43
77599;BMP280;66758;52.078;5.070;2023-03-03T02:18:13;102688.69;;;0.36
77599;BMP280;66758;52.078;5.070;2023-03-03T02:26:09;102693.38;;;0.41
77599;BMP280;66758;52.078;5.070;2023-03-03T02:28:38;102684.59;;;0.33
77599;BMP280;66758;52.078;5.070;2023-03-03T02:31:07;102686.22;;;0.34
77599;BMP280;66758;52.078;5.070;2023-03-03T02:33:38;102689.88;;;0.28
77599;BMP280;66758;52.078;5.070;2023-03-03T02:36:03;102692.13;;;0.31
77599;BMP280;66758;52.078;5.070;2023-03-03T02:38:39;102674.84;;;0.32
77599;BMP280;66758;52.078;5.070;2023-03-03T02:41:17;102687.41;;;0.39
77599;BMP280;66758;52.078;5.070;2023-03-03T02:46:13;102687.06;;;0.35
77599;BMP280;66758;52.078;5.070;2023-03-03T02:48:40;102692.81;;;0.39
77599;BMP280;66758;52.078;5.070;2023-03-03T02:51:05;102686.47;;;0.33
77599;BMP280;66758;52.078;5.070;2023-03-03T02:53:32;102694.91;;;0.37
77599;BMP280;66758;52.078;5.070;2023-03-03T02:55:57;102687.06;;;0.58
77599;BMP280;66758;52.078;5.070;2023-03-03T02:58:23;102667.47;;;0.40
77599;BMP280;66758;52.078;5.070;2023-03-03T03:00:49;102696.34;;;0.51
77599;BMP280;66758;52.078;5.070;2023-03-03T03:03:14;102682.50;;;0.47
77599;BMP280;66758;52.078;5.070;2023-03-03T03:05:40;102703.97;;;0.54
77599;BMP280;66758;52.078;5.070;2023-03-03T03:08:05;102700.78;;;0.57
77599;BMP280;66758;52.078;5.070;2023-03-03T03:10:31;102695.88;;;0.54
77599;BMP280;66758;52.078;5.070;2023-03-03T03:12:57;102666.66;;;0.39
77599;BMP280;66758;52.078;5.070;2023-03-03T03:15:22;102686.84;;;0.48
77599;BMP280;66758;52.078;5.070;2023-03-03T03:17:48;102678.97;;;0.47
77599;BMP280;66758;52.078;5.070;2023-03-03T03:20:14;102676.63;;;0.39
77599;BMP280;66758;52.078;5.070;2023-03-03T03:22:40;102691.78;;;0.63
77599;BMP280;66758;52.078;5.070;2023-03-03T03:25:06;102692.47;;;0.47
77599;BMP280;66758;52.078;5.070;2023-03-03T03:27:32;102690.84;;;0.57
77599;BMP280;66758;52.078;5.070;2023-03-03T03:30:00;102682.72;;;0.46
77599;BMP280;66758;52.078;5.070;2023-03-03T03:32:26;102688.13;;;0.46
77599;BMP280;66758;52.078;5.070;2023-03-03T03:34:52;102677.34;;;0.46
77599;BMP280;66758;52.078;5.070;2023-03-03T03:37:19;102700.44;;;0.53
77599;BMP280;66758;52.078;5.070;2023-03-03T03:39:44;102693.03;;;0.49
77599;BMP280;66758;52.078;5.070;2023-03-03T03:42:10;102692.38;;;0.65
77599;BMP280;66758;52.078;5.070;2023-03-03T03:44:36;102688.72;;;0.48
77599;BMP280;66758;52.078;5.070;2023-03-03T03:47:01;102695.50;;;0.50
77599;BMP280;66758;52.078;5.070;2023-03-03T03:49:27;102685.09;;;0.54
77599;BMP280;66758;52.078;5.070;2023-03-03T03:51:52;102682.25;;;0.49
77599;BMP280;66758;52.078;5.070;2023-03-03T03:54:18;102705.50;;;0.61
77599;BMP280;66758;52.078;5.070;2023-03-03T03:56:44;102685.91;;;0.54
77599;BMP280;66758;52.078;5.070;2023-03-03T03:59:10;102699.50;;;0.59
77599;BMP280;66758;52.078;5.070;2023-03-03T04:01:36;102699.63;;;0.53
77599;BMP280;66758;52.078;5.070;2023-03-03T04:04:01;102692.59;;;0.52
77599;BMP280;66758;52.078;5.070;2023-03-03T04:06:28;102677.22;;;0.52
77599;BMP280;66758;52.078;5.070;2023-03-03T04:08:54;102701.75;;;0.62
77599;BMP280;66758;52.078;5.070;2023-03-03T04:11:20;102707.72;;;0.64
77599;BMP280;66758;52.078;5.070;2023-03-03T04:13:45;102710.06;;;0.73
77599;BMP280;66758;52.078;5.070;2023-03-03T04:16:11;102696.00;;;0.59
77599;BMP280;66758;52.078;5.070;2023-03-03T04:18:37;102712.19;;;0.94
77599;BMP280;66758;52.078;5.070;2023-03-03T04:21:03;102702.22;;;0.71
77599;BMP280;66758;52.078;5.070;2023-03-03T04:23:29;102708.91;;;0.69
77599;BMP280;66758;52.078;5.070;2023-03-03T04:25:54;102710.53;;;0.81
77599;BMP280;66758;52.078;5.070;2023-03-03T04:28:20;102715.34;;;0.79
77599;BMP280;66758;52.078;5.070;2023-03-03T04:30:46;102716.41;;;0.78
77599;BMP280;66758;52.078;5.070;2023-03-03T04:33:12;102708.09;;;0.68
77599;BMP280;66758;52.078;5.070;2023-03-03T04:35:37;102714.06;;;0.82
77599;BMP280;66758;52.078;5.070;2023-03-03T04:38:03;102703.97;;;0.89
77599;BMP280;66758;52.078;5.070;2023-03-03T04:40:31;102718.75;;;0.86
77599;BMP280;66758;52.078;5.070;2023-03-03T04:42:57;102702.22;;;0.71
77599;BMP280;66758;52.078;5.070;2023-03-03T04:45:22;102707.97;;;0.75
77599;BMP280;66758;52.078;5.070;2023-03-03T04:47:48;102717.13;;;0.85
77599;BMP280;66758;52.078;5.070;2023-03-03T04:50:13;102717.94;;;0.97
77599;BMP280;66758;52.078;5.070;2023-03-03T04:52:39;102709.72;;;0.92
77599;BMP280;66758;52.078;5.070;2023-03-03T04:55:05;102727.56;;;1.05
77599;BMP280;66758;52.078;5.070;2023-03-03T04:57:30;102717.72;;;0.87
77599;BMP280;66758;52.078;5.070;2023-03-03T04:59:56;102723.09;;;0.87
77599;BMP280;66758;52.078;5.070;2023-03-03T05:02:21;102722.28;;;0.98
77599;BMP280;66758;52.078;5.070;2023-03-03T05:04:47;102723.69;;;1.01
77599;BMP280;66758;52.078;5.070;2023-03-03T05:07:13;102722.03;;;0.88
77599;BMP280;66758;52.078;5.070;2023-03-03T05:09:38;102720.06;;;0.95
77599;BMP280;66758;52.078;5.070;2023-03-03T05:12:04;102723.56;;;1.08
77599;BMP280;66758;52.078;5.070;2023-03-03T05:14:30;102717.09;;;1.09
77599;BMP280;66758;52.078;5.070;2023-03-03T05:16:56;102715.81;;;0.99
77599;BMP280;66758;52.078;5.070;2023-03-03T05:19:22;102708.91;;;0.92
77599;BMP280;66758;52.078;5.070;2023-03-03T05:21:48;102706.66;;;1.01
77599;BMP280;66758;52.078;5.070;2023-03-03T05:24:14;102724.38;;;1.08
77599;BMP280;66758;52.078;5.070;2023-03-03T05:26:40;102715.69;;;1.06
77599;BMP280;66758;52.078;5.070;2023-03-03T05:29:08;102709.25;;;1.07
77599;BMP280;66758;52.078;5.070;2023-03-03T05:31:34;102718.38;;;1.29
77599;BMP280;66758;52.078;5.070;2023-03-03T05:33:59;102721.69;;;1.20
77599;BMP280;66758;52.078;5.070;2023-03-03T05:36:25;102716.28;;;1.20
77599;BMP280;66758;52.078;5.070;2023-03-03T05:38:51;102717.22;;;1.14
77599;BMP280;66758;52.078;5.070;2023-03-03T05:41:16;102707.47;;;1.13
77599;BMP280;66758;52.078;5.070;2023-03-03T05:43:42;102717.81;;;1.16
77599;BMP280;66758;52.078;5.070;2023-03-03T05:46:09;102716.41;;;1.13
77599;BMP280;66758;52.078;5.070;2023-03-03T05:48:35;102722.16;;;1.17
77599;BMP280;66758;52.078;5.070;2023-03-03T05:51:00;102720.72;;;1.26
77599;BMP280;66758;52.078;5.070;2023-03-03T05:53:27;102694.56;;;1.15
77599;BMP280;66758;52.078;5.070;2023-03-03T05:55:53;102717.63;;;1.34
77599;BMP280;66758;52.078;5.070;2023-03-03T05:58:20;102716.97;;;1.27
77599;BMP280;66758;52.078;5.070;2023-03-03T06:00:49;102700.66;;;1.22
77599;BMP280;66758;52.078;5.070;2023-03-03T06:03:15;102712.53;;;1.21
77599;BMP280;66758;52.078;5.070;2023-03-03T06:05:42;102726.81;;;1.33
77599;BMP280;66758;52.078;5.070;2023-03-03T06:08:07;102715.19;;;1.33
77599;BMP280;66758;52.078;5.070;2023-03-03T06:10:34;102704.25;;;1.39
77599;BMP280;66758;52.078;5.070;2023-03-03T06:13:00;102729.03;;;1.36
77599;BMP280;66758;52.078;5.070;2023-03-03T06:15:26;102737.91;;;1.48
77599;BMP280;66758;52.078;5.070;2023-03-03T06:17:51;102718.38;;;1.29
77599;BMP280;66758;52.078;5.070;2023-03-03T06:20:17;102740.88;;;1.35
77599;BMP280;66758;52.078;5.070;2023-03-03T06:22:43;102742.03;;;1.39
77599;BMP280;66758;52.078;5.070;2023-03-03T06:25:09;102724.72;;;1.23
77599;BMP280;66758;52.078;5.070;2023-03-03T06:27:35;102744.28;;;1.42
77599;BMP280;66758;52.078;5.070;2023-03-03T06:30:01;102738.09;;;1.30
77599;BMP280;66758;52.078;5.070;2023-03-03T06:32:28;102736.16;;;1.42
77599;BMP280;66758;52.078;5.070;2023-03-03T06:34:55;102737.81;;;1.43
77599;BMP280;66758;52.078;5.070;2023-03-03T06:37:20;102740.41;;;1.38
77599;BMP280;66758;52.078;5.070;2023-03-03T06:39:46;102738.28;;;1.40
77599;BMP280;66758;52.078;5.070;2023-03-03T06:42:12;102731.72;;;1.36
77599;BMP280;66758;52.078;5.070;2023-03-03T06:44:40;102751.44;;;1.48
77599;BMP280;66758;52.078;5.070;2023-03-03T06:47:05;102746.16;;;1.42
77599;BMP280;66758;52.078;5.070;2023-03-03T06:49:31;102742.53;;;1.36
77599;BMP280;66758;52.078;5.070;2023-03-03T06:52:00;102753.91;;;1.38
77599;BMP280;66758;52.078;5.070;2023-03-03T06:54:29;102748.13;;;1.46
77599;BMP280;66758;52.078;5.070;2023-03-03T06:56:59;102760.00;;;1.45
77599;BMP280;66758;52.078;5.070;2023-03-03T06:59:26;102758.94;;;1.46
77599;BMP280;66758;52.078;5.070;2023-03-03T07:01:52;102760.81;;;1.57
77599;BMP280;66758;52.078;5.070;2023-03-03T07:04:31;102774.31;;;1.57
77599;BMP280;66758;52.078;5.070;2023-03-03T07:07:07;102770.19;;;1.67
77599;BMP280;66758;52.078;5.070;2023-03-03T07:09:38;102773.00;;;1.60
77599;BMP280;66758;52.078;5.070;2023-03-03T07:12:14;102788.72;;;1.75
77599;BMP280;66758;52.078;5.070;2023-03-03T07:14:42;102793.06;;;1.76
77599;BMP280;66758;52.078;5.070;2023-03-03T07:17:17;102788.97;;;2.02
77599;BMP280;66758;52.078;5.070;2023-03-03T07:19:44;102791.19;;;1.76
77599;BMP280;66758;52.078;5.070;2023-03-03T07:22:24;102787.13;;;1.90
77599;BMP280;66758;52.078;5.070;2023-03-03T07:24:58;102780.59;;;1.86
77599;BMP280;66758;52.078;5.070;2023-03-03T07:27:27;102796.25;;;2.01
77599;BMP280;66758;52.078;5.070;2023-03-03T07:30:01;102803.31;;;2.02
77599;BMP280;66758;52.078;5.070;2023-03-03T07:32:39;102797.78;;;1.97
77599;BMP280;66758;52.078;5.070;2023-03-03T07:35:36;102807.19;;;1.94
77599;BMP280;66758;52.078;5.070;2023-03-03T07:38:16;102807.34;;;1.88
77599;BMP280;66758;52.078;5.070;2023-03-03T07:40:49;102804.31;;;2.13
77599;BMP280;66758;52.078;5.070;2023-03-03T07:43:29;102816.38;;;1.93
77599;BMP280;66758;52.078;5.070;2023-03-03T07:48:57;102804.00;;;2.09
77599;BMP280;66758;52.078;5.070;2023-03-03T07:51:35;102804.38;;;2.29
77599;BMP280;66758;52.078;5.070;2023-03-03T07:56:55;102820.16;;;2.21
77599;BMP280;66758;52.078;5.070;2023-03-03T07:59:25;102835.44;;;2.27
77599;BMP280;66758;52.078;5.070;2023-03-03T08:02:00;102836.25;;;2.27
77599;BMP280;66758;52.078;5.070;2023-03-03T08:04:37;102832.47;;;2.28
77599;BMP280;66758;52.078;5.070;2023-03-03T08:07:10;102813.28;;;2.30
77599;BMP280;66758;52.078;5.070;2023-03-03T08:10:00;102830.31;;;2.30
77599;BMP280;66758;52.078;5.070;2023-03-03T08:12:30;102838.72;;;2.46
77599;BMP280;66758;52.078;5.070;2023-03-03T08:17:44;102841.81;;;2.38
77599;BMP280;66758;52.078;5.070;2023-03-03T08:23:34;102851.22;;;2.80
77599;BMP280;66758;52.078;5.070;2023-03-03T08:26:00;102845.50;;;2.93
77599;BMP280;66758;52.078;5.070;2023-03-03T08:28:26;102853.69;;;3.15
77599;BMP280;66758;52.078;5.070;2023-03-03T08:30:51;102850.25;;;3.03
77599;BMP280;66758;52.078;5.070;2023-03-03T08:33:17;102846.06;;;3.12
77599;BMP280;66758;52.078;5.070;2023-03-03T08:35:44;102847.19;;;2.99
77599;BMP280;66758;52.078;5.070;2023-03-03T08:38:12;102848.34;;;3.04
77599;BMP280;66758;52.078;5.070;2023-03-03T08:40:38;102832.72;;;3.27
77599;BMP280;66758;52.078;5.070;2023-03-03T08:43:04;102856.53;;;3.64
77599;BMP280;66758;52.078;5.070;2023-03-03T08:45:33;102855.97;;;3.84
77599;BMP280;66758;52.078;5.070;2023-03-03T08:47:59;102862.53;;;3.88
77599;BMP280;66758;52.078;5.070;2023-03-03T08:50:26;102858.09;;;3.82
77599;BMP280;66758;52.078;5.070;2023-03-03T08:52:52;102860.22;;;3.36
77599;BMP280;66758;52.078;5.070;2023-03-03T08:55:18;102860.28;;;3.41
77599;BMP280;66758;52.078;5.070;2023-03-03T08:57:44;102868.00;;;3.71
77599;BMP280;66758;52.078;5.070;2023-03-03T09:00:12;102850.47;;;3.79
77599;BMP280;66758;52.078;5.070;2023-03-03T09:02:42;102865.47;;;3.86
77599;BMP280;66758;52.078;5.070;2023-03-03T09:05:08;102852.50;;;3.28
77599;BMP280;66758;52.078;5.070;2023-03-03T09:07:36;102875.41;;;3.37
77599;BMP280;66758;52.078;5.070;2023-03-03T09:10:02;102867.50;;;3.74
77599;BMP280;66758;52.078;5.070;2023-03-03T09:12:37;102850.22;;;3.80
77599;BMP280;66758;52.078;5.070;2023-03-03T09:15:31;102845.63;;;4.61
77599;BMP280;66758;52.078;5.070;2023-03-03T09:20:48;102850.97;;;4.51
77599;BMP280;66758;52.078;5.070;2023-03-03T09:26:28;102862.19;;;4.33
77599;BMP280;66758;52.078;5.070;2023-03-03T09:29:06;102862.88;;;3.96
77599;BMP280;66758;52.078;5.070;2023-03-03T09:31:47;102855.97;;;3.84
77599;BMP280;66758;52.078;5.070;2023-03-03T09:34:37;102863.50;;;4.03
77599;BMP280;66758;52.078;5.070;2023-03-03T09:37:22;102870.72;;;3.93
77599;BMP280;66758;52.078;5.070;2023-03-03T09:39:50;102866.47;;;3.80
77599;BMP280;66758;52.078;5.070;2023-03-03T09:45:18;102856.69;;;5.34
77599;BMP280;66758;52.078;5.070;2023-03-03T09:51:00;102862.88;;;8.56
77599;BMP280;66758;52.078;5.070;2023-03-03T10:05:15;102860.53;;;8.97
77599;BMP280;66758;52.078;5.070;2023-03-03T10:07:48;102870.63;;;8.10
77599;BMP280;66758;52.078;5.070;2023-03-03T10:10:31;102874.19;;;9.21
77599;BMP280;66758;52.078;5.070;2023-03-03T10:22:02;102863.41;;;10.09
77599;BMP280;66758;52.078;5.070;2023-03-03T10:32:32;102879.84;;;6.85
77599;BMP280;66758;52.078;5.070;2023-03-03T10:35:23;102878.19;;;6.23
77599;BMP280;66758;52.078;5.070;2023-03-03T10:40:52;102882.88;;;8.51
77599;BMP280;66758;52.078;5.070;2023-03-03T10:50:19;102866.97;;;9.72
77599;BMP280;66758;52.078;5.070;2023-03-03T11:01:13;102875.41;;;13.10
77599;BMP280;66758;52.078;5.070;2023-03-03T11:04:02;102870.31;;;11.08
77599;BMP280;66758;52.078;5.070;2023-03-03T11:15:33;102871.75;;;8.04
77599;BMP280;66758;52.078;5.070;2023-03-03T11:21:06;102864.69;;;7.98
77599;BMP280;66758;52.078;5.070;2023-03-03T11:31:48;102869.44;;;9.07
77599;BMP280;66758;52.078;5.070;2023-03-03T11:37:22;102863.09;;;10.84
77599;BMP280;66758;52.078;5.070;2023-03-03T11:39:52;102846.81;;;14.64
77599;BMP280;66758;52.078;5.070;2023-03-03T11:42:26;102849.88;;;9.99
77599;BMP280;66758;52.078;5.070;2023-03-03T11:44:58;102851.25;;;9.59
77599;BMP280;66758;52.078;5.070;2023-03-03T11:47:38;102842.34;;;9.30
77599;BMP280;66758;52.078;5.070;2023-03-03T11:56:26;102846.63;;;10.11
77599;BMP280;66758;52.078;5.070;2023-03-03T12:03:25;102846.38;;;9.37
77599;BMP280;66758;52.078;5.070;2023-03-03T12:12:14;102841.97;;;7.58
77599;BMP280;66758;52.078;5.070;2023-03-03T12:20:54;102833.16;;;8.49
77599;BMP280;66758;52.078;5.070;2023-03-03T12:40:35;102812.38;;;7.80
77599;BMP280;66758;52.078;5.070;2023-03-03T12:46:23;102824.31;;;7.45
77599;BMP280;66758;52.078;5.070;2023-03-03T12:48:50;102816.69;;;7.91
77599;BMP280;66758;52.078;5.070;2023-03-03T12:54:13;102810.75;;;7.79
77599;BMP280;66758;52.078;5.070;2023-03-03T13:05:00;102809.50;;;8.01
77599;BMP280;66758;52.078;5.070;2023-03-03T13:07:36;102798.97;;;8.52
77599;BMP280;66758;52.078;5.070;2023-03-03T13:15:46;102804.28;;;8.38
77599;BMP280;66758;52.078;5.070;2023-03-03T13:18:46;102805.22;;;7.89
77599;BMP280;66758;52.078;5.070;2023-03-03T13:26:49;102794.50;;;7.64
77599;BMP280;66758;52.078;5.070;2023-03-03T13:32:20;102804.94;;;7.47
77599;BMP280;66758;52.078;5.070;2023-03-03T13:35:16;102804.47;;;7.84
77599;BMP280;66758;52.078;5.070;2023-03-03T13:37:52;102793.50;;;8.23
77599;BMP280;66758;52.078;5.070;2023-03-03T13:40:44;102792.53;;;8.66
77599;BMP280;66758;52.078;5.070;2023-03-03T13:46:15;102783.97;;;8.97
77599;BMP280;66758;52.078;5.070;2023-03-03T14:06:06;102779.41;;;8.11
77599;BMP280;66758;52.078;5.070;2023-03-03T14:09:34;102797.91;;;8.48
77599;BMP280;66758;52.078;5.070;2023-03-03T14:12:03;102791.91;;;8.17
77599;BMP280;66758;52.078;5.070;2023-03-03T14:17:08;102793.50;;;7.89
77599;BMP280;66758;52.078;5.070;2023-03-03T14:19:45;102788.25;;;7.98
77599;BMP280;66758;52.078;5.070;2023-03-03T14:22:24;102795.91;;;7.95
77599;BMP280;66758;52.078;5.070;2023-03-03T14:25:00;102793.81;;;7.87
77599;BMP280;66758;52.078;5.070;2023-03-03T14:27:33;102787.53;;;8.50
77599;BMP280;66758;52.078;5.070;2023-03-03T14:35:42;102773.13;;;7.76
77599;BMP280;66758;52.078;5.070;2023-03-03T14:38:20;102778.97;;;7.59
77599;BMP280;66758;52.078;5.070;2023-03-03T14:40:47;102783.81;;;7.68
77599;BMP280;66758;52.078;5.070;2023-03-03T14:43:23;102771.00;;;7.68
77599;BMP280;66758;52.078;5.070;2023-03-03T14:45:53;102772.97;;;7.57
77599;BMP280;66758;52.078;5.070;2023-03-03T14:48:23;102779.91;;;7.35
77599;BMP280;66758;52.078;5.070;2023-03-03T14:50:56;102779.44;;;7.72
77599;BMP280;66758;52.078;5.070;2023-03-03T14:53:38;102766.28;;;7.35
77599;BMP280;66758;52.078;5.070;2023-03-03T14:58:54;102781.50;;;7.46
77599;BMP280;66758;52.078;5.070;2023-03-03T15:01:35;102755.75;;;7.18
77599;BMP280;66758;52.078;5.070;2023-03-03T15:04:23;102762.72;;;7.39
77599;BMP280;66758;52.078;5.070;2023-03-03T15:06:50;102777.13;;;7.50
77599;BMP280;66758;52.078;5.070;2023-03-03T15:09:32;102762.38;;;7.51
77599;BMP280;66758;52.078;5.070;2023-03-03T15:14:48;102766.41;;;7.09
77599;BMP280;66758;52.078;5.070;2023-03-03T15:20:13;102760.47;;;7.46
77599;BMP280;66758;52.078;5.070;2023-03-03T15:22:55;102765.78;;;7.22
77599;BMP280;66758;52.078;5.070;2023-03-03T15:28:49;102751.00;;;7.34
77599;BMP280;66758;52.078;5.070;2023-03-03T15:37:32;102754.34;;;7.26
77599;BMP280;66758;52.078;5.070;2023-03-03T15:56:41;102739.19;;;6.99
77599;BMP280;66758;52.078;5.070;2023-03-03T16:05:55;102727.38;;;7.63
77599;BMP280;66758;52.078;5.070;2023-03-03T16:27:15;102743.50;;;7.10
77599;BMP280;66758;52.078;5.070;2023-03-03T16:36:10;102720.25;;;6.64
77599;BMP280;66758;52.078;5.070;2023-03-03T16:48:15;102730.06;;;6.55
77599;BMP280;66758;52.078;5.070;2023-03-03T16:54:05;102742.59;;;6.45
77599;BMP280;66758;52.078;5.070;2023-03-03T16:59:44;102735.78;;;6.48
77599;BMP280;66758;52.078;5.070;2023-03-03T17:03:07;102742.34;;;6.37
77599;BMP280;66758;52.078;5.070;2023-03-03T17:05:52;102730.06;;;6.49
77599;BMP280;66758;52.078;5.070;2023-03-03T17:16:55;102760.28;;;6.58
77599;BMP280;66758;52.078;5.070;2023-03-03T17:22:44;102765.47;;;6.49
77599;BMP280;66758;52.078;5.070;2023-03-03T17:25:16;102767.38;;;6.49
77599;BMP280;66758;52.078;5.070;2023-03-03T17:28:03;102769.56;;;6.52
77599;BMP280;66758;52.078;5.070;2023-03-03T17:47:05;102773.63;;;6.60
77599;BMP280;66758;52.078;5.070;2023-03-03T17:52:45;102783.47;;;6.50
77599;BMP280;66758;52.078;5.070;2023-03-03T17:55:34;102776.91;;;6.52
77599;BMP280;66758;52.078;5.070;2023-03-03T18:20:22;102812.59;;;6.40
77599;BMP280;66758;52.078;5.070;2023-03-03T18:22:52;102783.75;;;6.29
77599;BMP280;66758;52.078;5.070;2023-03-03T18:25:23;102797.34;;;6.34
77599;BMP280;66758;52.078;5.070;2023-03-03T18:30:29;102800.59;;;6.31
77599;BMP280;66758;52.078;5.070;2023-03-03T18:33:16;102804.16;;;6.31
77599;BMP280;66758;52.078;5.070;2023-03-03T18:36:11;102814.50;;;6.29
77599;BMP280;66758;52.078;5.070;2023-03-03T18:38:38;102815.06;;;6.16
77599;BMP280;66758;52.078;5.070;2023-03-03T18:41:27;102817.78;;;6.16
77599;BMP280;66758;52.078;5.070;2023-03-03T18:44:48;102827.84;;;6.16
77599;BMP280;66758;52.078;5.070;2023-03-03T18:47:07;102825.13;;;6.16
77599;BMP280;66758;52.078;5.070;2023-03-03T18:49:54;102828.66;;;6.16
77599;BMP280;66758;52.078;5.070;2023-03-03T18:52:28;102821.84;;;6.08
77599;BMP280;66758;52.078;5.070;2023-03-03T18:58:01;102819.38;;;6.07
77599;BMP280;66758;52.078;5.070;2023-03-03T19:00:55;102822.91;;;6.07
77599;BMP280;66758;52.078;5.070;2023-03-03T19:03:36;102830.84;;;6.14
77599;BMP280;66758;52.078;5.070;2023-03-03T19:06:53;102830.81;;;6.09
77599;BMP280;66758;52.078;5.070;2023-03-03T19:12:57;102824.81;;;6.07
77599;BMP280;66758;52.078;5.070;2023-03-03T19:15:42;102829.19;;;6.08
77599;BMP280;66758;52.078;5.070;2023-03-03T19:18:26;102825.63;;;6.07
77599;BMP280;66758;52.078;5.070;2023-03-03T19:21:05;102830.53;;;6.10
77599;BMP280;66758;52.078;5.070;2023-03-03T19:23:54;102831.91;;;6.08
77599;BMP280;66758;52.078;5.070;2023-03-03T19:29:15;102836.81;;;6.11
77599;BMP280;66758;52.078;5.070;2023-03-03T19:34:42;102827.84;;;6.26
77599;BMP280;66758;52.078;5.070;2023-03-03T19:40:11;102827.00;;;6.05
77599;BMP280;66758;52.078;5.070;2023-03-03T19:45:54;102837.88;;;6.05
77599;BMP280;66758;52.078;5.070;2023-03-03T19:48:49;102834.34;;;6.04
77599;BMP280;66758;52.078;5.070;2023-03-03T19:51:43;102824.00;;;5.96
77599;BMP280;66758;52.078;5.070;2023-03-03T19:56:48;102840.34;;;6.06
77599;BMP280;66758;52.078;5.070;2023-03-03T19:59:48;102834.63;;;6.08
77599;BMP280;66758;52.078;5.070;2023-03-03T20:05:26;102826.16;;;5.94
77599;BMP280;66758;52.078;5.070;2023-03-03T20:15:21;102823.44;;;5.94
77599;BMP280;66758;52.078;5.070;2023-03-03T20:20:39;102845.50;;;6.08
77599;BMP280;66758;52.078;5.070;2023-03-03T20:23:23;102842.22;;;6.06
77599;BMP280;66758;52.078;5.070;2023-03-03T20:25:56;102845.53;;;6.13
77599;BMP280;66758;52.078;5.070;2023-03-03T20:28:58;102835.41;;;6.03
77599;BMP280;66758;52.078;5.070;2023-03-03T20:34:41;102835.72;;;6.07
77599;BMP280;66758;52.078;5.070;2023-03-03T20:37:16;102834.34;;;6.04
77599;BMP280;66758;52.078;5.070;2023-03-03T20:45:53;102844.97;;;6.11
77599;BMP280;66758;52.078;5.070;2023-03-03T20:48:53;102842.81;;;6.03
77599;BMP280;66758;52.078;5.070;2023-03-03T20:58:06;102849.88;;;6.09
77599;BMP280;66758;52.078;5.070;2023-03-03T21:03:21;102831.34;;;6.01
77599;BMP280;66758;52.078;5.070;2023-03-03T21:11:15;102846.03;;;6.05
77599;BMP280;66758;52.078;5.070;2023-03-03T21:13:48;102837.88;;;6.05
77599;BMP280;66758;52.078;5.070;2023-03-03T21:19:01;102844.13;;;6.05
77599;BMP280;66758;52.078;5.070;2023-03-03T21:21:34;102862.41;;;6.15
77599;BMP280;66758;52.078;5.070;2023-03-03T21:24:03;102843.31;;;6.05